sensor_id;sensor_type;location;lat;lon;timestamp;temperature;humidity
20045;DHT22;10183;47.808;9.476;2023-02-11T00:00:10;-2.90;99.90
20045;DHT22;10183;47.808;9.476;2023-02-11T00:02:37;-2.90;99.90
20045;DHT22;10183;47.808;9.476;2023-02-11T00:05:03;-2.80;99.90
20045;DHT22;10183;47.808;9.476;2023-02-11T00:07:33;-2.80;99.90
20045;DHT22;10183;47.808;9.476;2023-02-11T00:10:00;-2.80;99.90
20045;DHT22;10183;47.808;9.476;2023-02-11T00:12:28;-2.80;99.90
20045;DHT22;10183;47.808;9.476;2023-02-11T00:14:56;-2.80;99.90
20045;DHT22;10183;47.808;9.476;2023-02-11T00:17:22;-3.00;99.90
20045;DHT22;10183;47.808;9.476;2023-02-11T00:19:49;-3.00;99.90
20045;DHT22;10183;47.808;9.476;2023-02-11T00:22:16;-3.00;99.90
20045;DHT22;10183;47.808;9.476;2023-02-11T00:24:43;-2.90;99.90
20045;DHT22;10183;47.808;9.476;2023-02-11T00:27:09;-2.80;99.90
20045;DHT22;10183;47.808;9.476;2023-02-11T00:29:38;-2.90;99.90
20045;DHT22;10183;47.808;9.476;2023-02-11T00:32:05;-3.00;99.90
20045;DHT22;10183;47.808;9.476;2023-02-11T00:34:32;-3.10;99.90
20045;DHT22;10183;47.808;9.476;2023-02-11T00:36:59;-3.10;99.90
20045;DHT22;10183;47.808;9.476;2023-02-11T00:39:25;-3.20;99.90
20045;DHT22;10183;47.808;9.476;2023-02-11T00:41:51;-3.30;99.90
20045;DHT22;10183;47.808;9.476;2023-02-11T00:44:18;-3.40;99.90
20045;DHT22;10183;47.808;9.476;2023-02-11T00:46:44;-3.30;99.90
20045;DHT22;10183;47.808;9.476;2023-02-11T00:49:10;-3.30;99.90
20045;DHT22;10183;47.808;9.476;2023-02-11T00:51:36;-3.40;99.90
20045;DHT22;10183;47.808;9.476;2023-02-11T00:54:02;-3.30;99.90
20045;DHT22;10183;47.808;9.476;2023-02-11T00:56:29;-3.30;99.90
20045;DHT22;10183;47.808;9.476;2023-02-11T00:58:55;-3.20;99.90
20045;DHT22;10183;47.808;9.476;2023-02-11T01:01:21;-3.20;99.90
20045;DHT22;10183;47.808;9.476;2023-02-11T01:03:47;-3.10;99.90
20045;DHT22;10183;47.808;9.476;2023-02-11T01:06:14;-3.10;99.90
20045;DHT22;10183;47.808;9.476;2023-02-11T01:08:40;-3.10;99.90
20045;DHT22;10183;47.808;9.476;2023-02-11T01:11:11;-3.00;99.90
20045;DHT22;10183;47.808;9.476;2023-02-11T01:13:37;-3.00;99.90
20045;DHT22;10183;47.808;9.476;2023-02-11T01:16:07;-3.00;99.90
20045;DHT22;10183;47.808;9.476;2023-02-11T01:18:33;-3.10;99.90
20045;DHT22;10183;47.808;9.476;2023-02-11T01:21:00;-3.00;99.90
20045;DHT22;10183;47.808;9.476;2023-02-11T01:23:26;-3.10;99.90
20045;DHT22;10183;47.808;9.476;2023-02-11T01:25:52;-3.10;99.90
20045;DHT22;10183;47.808;9.476;2023-02-11T01:28:22;-3.00;99.90
20045;DHT22;10183;47.808;9.476;2023-02-11T01:30:48;-3.00;99.90
20045;DHT22;10183;47.808;9.476;2023-02-11T01:33:14;-3.00;99.90
20045;DHT22;10183;47.808;9.476;2023-02-11T01:35:40;-3.00;99.90
20045;DHT22;10183;47.808;9.476;2023-02-11T01:38:16;-3.00;99.90
20045;DHT22;10183;47.808;9.476;2023-02-11T01:40:52;-2.90;99.90
20045;DHT22;10183;47.808;9.476;2023-02-11T01:43:19;-2.90;99.90
20045;DHT22;10183;47.808;9.476;2023-02-11T01:48:18;-2.80;99.90
20045;DHT22;10183;47.808;9.476;2023-02-11T01:50:47;-2.80;99.90
20045;DHT22;10183;47.808;9.476;2023-02-11T01:53:15;-2.80;99.90
20045;DHT22;10183;47.808;9.476;2023-02-11T01:56:01;-2.80;99.90
20045;DHT22;10183;47.808;9.476;2023-02-11T01:58:49;-2.90;99.90
20045;DHT22;10183;47.808;9.476;2023-02-11T02:01:19;-2.90;99.90
20045;DHT22;10183;47.808;9.476;2023-02-11T02:03:51;-2.80;99.90
20045;DHT22;10183;47.808;9.476;2023-02-11T02:06:24;-2.80;99.90
20045;DHT22;10183;47.808;9.476;2023-02-11T02:09:07;-2.90;99.90
20045;DHT22;10183;47.808;9.476;2023-02-11T02:11:35;-3.00;99.90
20045;DHT22;10183;47.808;9.476;2023-02-11T02:14:01;-3.50;99.90
20045;DHT22;10183;47.808;9.476;2023-02-11T02:16:35;-3.60;99.90
20045;DHT22;10183;47.808;9.476;2023-02-11T02:25:08;-3.60;99.90
20045;DHT22;10183;47.808;9.476;2023-02-11T02:33:51;-3.40;99.90
20045;DHT22;10183;47.808;9.476;2023-02-11T02:36:38;-3.50;99.90
20045;DHT22;10183;47.808;9.476;2023-02-11T02:39:12;-3.60;99.90
20045;DHT22;10183;47.808;9.476;2023-02-11T02:41:40;-3.60;99.90
20045;DHT22;10183;47.808;9.476;2023-02-11T02:44:07;-3.80;99.90
20045;DHT22;10183;47.808;9.476;2023-02-11T02:46:34;-3.90;99.90
20045;DHT22;10183;47.808;9.476;2023-02-11T02:49:01;-4.00;99.90
20045;DHT22;10183;47.808;9.476;2023-02-11T02:51:41;-4.40;99.90
20045;DHT22;10183;47.808;9.476;2023-02-11T02:57:02;-4.50;99.90
20045;DHT22;10183;47.808;9.476;2023-02-11T03:02:38;-4.70;99.90
20045;DHT22;10183;47.808;9.476;2023-02-11T03:05:37;-4.70;99.90
20045;DHT22;10183;47.808;9.476;2023-02-11T03:08:17;-4.60;99.90
20045;DHT22;10183;47.808;9.476;2023-02-11T03:10:49;-4.50;99.90
20045;DHT22;10183;47.808;9.476;2023-02-11T03:13:18;-4.40;99.90
20045;DHT22;10183;47.808;9.476;2023-02-11T03:15:49;-4.40;99.90
20045;DHT22;10183;47.808;9.476;2023-02-11T03:18:18;-4.40;99.90
20045;DHT22;10183;47.808;9.476;2023-02-11T03:20:48;-4.40;99.90
20045;DHT22;10183;47.808;9.476;2023-02-11T03:23:28;-4.30;99.90
20045;DHT22;10183;47.808;9.476;2023-02-11T03:26:00;-4.30;99.90
20045;DHT22;10183;47.808;9.476;2023-02-11T03:28:31;-4.30;99.90
20045;DHT22;10183;47.808;9.476;2023-02-11T03:31:05;-4.40;99.90
20045;DHT22;10183;47.808;9.476;2023-02-11T03:34:05;-4.50;99.90
20045;DHT22;10183;47.808;9.476;2023-02-11T03:36:40;-4.40;99.90
20045;DHT22;10183;47.808;9.476;2023-02-11T03:39:13;-4.50;99.90
20045;DHT22;10183;47.808;9.476;2023-02-11T03:41:41;-4.40;99.90
20045;DHT22;10183;47.808;9.476;2023-02-11T03:44:09;-4.20;99.90
20045;DHT22;10183;47.808;9.476;2023-02-11T03:46:41;-4.20;99.90
20045;DHT22;10183;47.808;9.476;2023-02-11T03:49:12;-4.10;99.90
20045;DHT22;10183;47.808;9.476;2023-02-11T03:51:40;-4.00;99.90
20045;DHT22;10183;47.808;9.476;2023-02-11T03:54:10;-4.00;99.90
20045;DHT22;10183;47.808;9.476;2023-02-11T03:56:53;-3.90;99.90
20045;DHT22;10183;47.808;9.476;2023-02-11T03:59:20;-4.00;99.90
20045;DHT22;10183;47.808;9.476;2023-02-11T04:01:46;-3.90;99.90
20045;DHT22;10183;47.808;9.476;2023-02-11T04:04:13;-3.90;99.90
20045;DHT22;10183;47.808;9.476;2023-02-11T04:06:39;-4.30;99.90
20045;DHT22;10183;47.808;9.476;2023-02-11T04:09:06;-4.40;99.90
20045;DHT22;10183;47.808;9.476;2023-02-11T04:11:32;-4.40;99.90
20045;DHT22;10183;47.808;9.476;2023-02-11T04:13:58;-4.40;99.90
20045;DHT22;10183;47.808;9.476;2023-02-11T04:16:24;-4.30;99.90
20045;DHT22;10183;47.808;9.476;2023-02-11T04:18:50;-4.20;99.90
20045;DHT22;10183;47.808;9.476;2023-02-11T04:21:16;-4.30;99.90
20045;DHT22;10183;47.808;9.476;2023-02-11T04:23:43;-4.30;99.90
20045;DHT22;10183;47.808;9.476;2023-02-11T04:26:09;-4.30;99.90
20045;DHT22;10183;47.808;9.476;2023-02-11T04:28:35;-4.20;99.90
20045;DHT22;10183;47.808;9.476;2023-02-11T04:31:01;-4.30;99.90
20045;DHT22;10183;47.808;9.476;2023-02-11T04:33:28;-4.20;99.90
20045;DHT22;10183;47.808;9.476;2023-02-11T04:35:54;-4.00;99.90
20045;DHT22;10183;47.808;9.476;2023-02-11T04:38:20;-4.10;99.90
20045;DHT22;10183;47.808;9.476;2023-02-11T04:40:49;-4.10;99.90
20045;DHT22;10183;47.808;9.476;2023-02-11T04:43:15;-4.00;99.90
20045;DHT22;10183;47.808;9.476;2023-02-11T04:45:41;-4.00;99.90
20045;DHT22;10183;47.808;9.476;2023-02-11T04:48:07;-3.90;99.90
20045;DHT22;10183;47.808;9.476;2023-02-11T04:50:34;-4.10;99.90
20045;DHT22;10183;47.808;9.476;2023-02-11T04:53:00;-4.20;99.90
20045;DHT22;10183;47.808;9.476;2023-02-11T04:55:26;-4.10;99.90
20045;DHT22;10183;47.808;9.476;2023-02-11T04:57:52;-4.10;99.90
20045;DHT22;10183;47.808;9.476;2023-02-11T05:00:20;-4.10;99.90
20045;DHT22;10183;47.808;9.476;2023-02-11T05:02:46;-4.00;99.90
20045;DHT22;10183;47.808;9.476;2023-02-11T05:05:12;-4.00;99.90
20045;DHT22;10183;47.808;9.476;2023-02-11T05:07:38;-4.00;99.90
20045;DHT22;10183;47.808;9.476;2023-02-11T05:10:04;-4.00;99.90
20045;DHT22;10183;47.808;9.476;2023-02-11T05:12:31;-4.00;99.90
20045;DHT22;10183;47.808;9.476;2023-02-11T05:14:57;-3.90;99.90
20045;DHT22;10183;47.808;9.476;2023-02-11T05:17:23;-3.90;99.90
20045;DHT22;10183;47.808;9.476;2023-02-11T05:19:49;-4.20;99.90
20045;DHT22;10183;47.808;9.476;2023-02-11T05:22:15;-4.30;99.90
20045;DHT22;10183;47.808;9.476;2023-02-11T05:24:41;-4.30;99.90
20045;DHT22;10183;47.808;9.476;2023-02-11T05:27:08;-4.40;99.90
20045;DHT22;10183;47.808;9.476;2023-02-11T05:29:34;-4.30;99.90
20045;DHT22;10183;47.808;9.476;2023-02-11T05:32:00;-4.30;99.90
20045;DHT22;10183;47.808;9.476;2023-02-11T05:34:26;-4.30;99.90
20045;DHT22;10183;47.808;9.476;2023-02-11T05:36:53;-4.20;99.90
20045;DHT22;10183;47.808;9.476;2023-02-11T05:39:19;-4.40;99.90
20045;DHT22;10183;47.808;9.476;2023-02-11T05:41:45;-4.70;99.90
20045;DHT22;10183;47.808;9.476;2023-02-11T05:44:11;-5.00;99.90
20045;DHT22;10183;47.808;9.476;2023-02-11T05:46:37;-5.30;99.90
20045;DHT22;10183;47.808;9.476;2023-02-11T05:49:03;-5.20;99.90
20045;DHT22;10183;47.808;9.476;2023-02-11T05:51:29;-5.20;99.90
20045;DHT22;10183;47.808;9.476;2023-02-11T05:53:55;-5.20;99.90
20045;DHT22;10183;47.808;9.476;2023-02-11T05:56:22;-5.20;99.90
20045;DHT22;10183;47.808;9.476;2023-02-11T05:58:48;-5.10;99.90
20045;DHT22;10183;47.808;9.476;2023-02-11T06:01:14;-5.10;99.90
20045;DHT22;10183;47.808;9.476;2023-02-11T06:03:40;-4.90;99.90
20045;DHT22;10183;47.808;9.476;2023-02-11T06:06:12;-4.90;99.90
20045;DHT22;10183;47.808;9.476;2023-02-11T06:08:38;-4.80;99.90
20045;DHT22;10183;47.808;9.476;2023-02-11T06:11:04;-4.80;99.90
20045;DHT22;10183;47.808;9.476;2023-02-11T06:13:31;-4.70;99.90
20045;DHT22;10183;47.808;9.476;2023-02-11T06:15:58;-4.50;99.90
20045;DHT22;10183;47.808;9.476;2023-02-11T06:18:25;-4.40;99.90
20045;DHT22;10183;47.808;9.476;2023-02-11T06:20:51;-4.30;99.90
20045;DHT22;10183;47.808;9.476;2023-02-11T06:23:18;-4.40;99.90
20045;DHT22;10183;47.808;9.476;2023-02-11T06:25:44;-4.50;99.90
20045;DHT22;10183;47.808;9.476;2023-02-11T06:28:10;-4.40;99.90
20045;DHT22;10183;47.808;9.476;2023-02-11T06:30:37;-4.30;99.90
20045;DHT22;10183;47.808;9.476;2023-02-11T06:33:04;-4.20;99.90
20045;DHT22;10183;47.808;9.476;2023-02-11T06:35:30;-4.10;99.90
20045;DHT22;10183;47.808;9.476;2023-02-11T06:37:58;-4.00;99.90
20045;DHT22;10183;47.808;9.476;2023-02-11T06:40:24;-3.90;99.90
20045;DHT22;10183;47.808;9.476;2023-02-11T06:42:51;-3.70;99.90
20045;DHT22;10183;47.808;9.476;2023-02-11T06:45:17;-3.70;99.90
20045;DHT22;10183;47.808;9.476;2023-02-11T06:47:46;-3.80;99.90
20045;DHT22;10183;47.808;9.476;2023-02-11T06:50:13;-3.80;99.90
20045;DHT22;10183;47.808;9.476;2023-02-11T06:52:40;-3.60;99.90
20045;DHT22;10183;47.808;9.476;2023-02-11T06:55:06;-3.50;99.90
20045;DHT22;10183;47.808;9.476;2023-02-11T06:57:32;-3.30;99.90
20045;DHT22;10183;47.808;9.476;2023-02-11T06:59:58;-3.30;99.90
20045;DHT22;10183;47.808;9.476;2023-02-11T07:02:24;-3.20;99.90
20045;DHT22;10183;47.808;9.476;2023-02-11T07:04:50;-3.10;99.90
20045;DHT22;10183;47.808;9.476;2023-02-11T07:07:17;-3.00;99.90
20045;DHT22;10183;47.808;9.476;2023-02-11T07:09:43;-2.90;99.90
20045;DHT22;10183;47.808;9.476;2023-02-11T07:12:10;-2.80;99.90
20045;DHT22;10183;47.808;9.476;2023-02-11T07:14:36;-2.80;99.90
20045;DHT22;10183;47.808;9.476;2023-02-11T07:17:04;-2.80;99.90
20045;DHT22;10183;47.808;9.476;2023-02-11T07:19:30;-2.70;99.90
20045;DHT22;10183;47.808;9.476;2023-02-11T07:21:56;-2.70;99.90
20045;DHT22;10183;47.808;9.476;2023-02-11T07:24:22;-2.50;99.90
20045;DHT22;10183;47.808;9.476;2023-02-11T07:26:49;-2.40;99.90
20045;DHT22;10183;47.808;9.476;2023-02-11T07:29:15;-2.30;99.90
20045;DHT22;10183;47.808;9.476;2023-02-11T07:31:42;-2.20;99.90
20045;DHT22;10183;47.808;9.476;2023-02-11T07:34:09;-2.10;99.90
20045;DHT22;10183;47.808;9.476;2023-02-11T07:36:36;-1.90;99.90
20045;DHT22;10183;47.808;9.476;2023-02-11T07:39:02;-1.90;99.90
20045;DHT22;10183;47.808;9.476;2023-02-11T07:41:29;-1.70;99.90
20045;DHT22;10183;47.808;9.476;2023-02-11T07:43:55;-1.60;99.90
20045;DHT22;10183;47.808;9.476;2023-02-11T07:46:23;-1.40;99.90
20045;DHT22;10183;47.808;9.476;2023-02-11T07:48:50;-1.30;99.90
20045;DHT22;10183;47.808;9.476;2023-02-11T07:51:23;-1.20;99.90
20045;DHT22;10183;47.808;9.476;2023-02-11T07:53:49;-1.10;99.90
20045;DHT22;10183;47.808;9.476;2023-02-11T07:56:18;-1.00;99.90
20045;DHT22;10183;47.808;9.476;2023-02-11T07:58:44;-0.90;99.90
20045;DHT22;10183;47.808;9.476;2023-02-11T08:01:14;-0.80;99.90
20045;DHT22;10183;47.808;9.476;2023-02-11T08:03:41;-0.90;99.90
20045;DHT22;10183;47.808;9.476;2023-02-11T08:06:10;-0.90;99.90
20045;DHT22;10183;47.808;9.476;2023-02-11T08:08:37;-0.90;99.90
20045;DHT22;10183;47.808;9.476;2023-02-11T08:11:21;-0.90;99.90
20045;DHT22;10183;47.808;9.476;2023-02-11T08:13:48;-0.70;99.90
20045;DHT22;10183;47.808;9.476;2023-02-11T08:16:34;-0.50;99.90
20045;DHT22;10183;47.808;9.476;2023-02-11T08:19:04;-0.20;99.90
20045;DHT22;10183;47.808;9.476;2023-02-11T08:21:31;-0.10;99.90
20045;DHT22;10183;47.808;9.476;2023-02-11T08:23:57;-0.20;99.90
20045;DHT22;10183;47.808;9.476;2023-02-11T08:26:27;-0.30;99.90
20045;DHT22;10183;47.808;9.476;2023-02-11T08:28:56;-0.30;99.90
20045;DHT22;10183;47.808;9.476;2023-02-11T08:31:32;-0.50;99.90
20045;DHT22;10183;47.808;9.476;2023-02-11T08:33:59;-0.30;99.90
20045;DHT22;10183;47.808;9.476;2023-02-11T08:36:29;-0.30;99.90
20045;DHT22;10183;47.808;9.476;2023-02-11T08:38:57;-0.70;99.90
20045;DHT22;10183;47.808;9.476;2023-02-11T08:41:31;-1.00;99.90
20045;DHT22;10183;47.808;9.476;2023-02-11T08:43:57;-0.60;99.90
20045;DHT22;10183;47.808;9.476;2023-02-11T08:46:24;-0.50;99.90
20045;DHT22;10183;47.808;9.476;2023-02-11T08:48:50;-1.00;99.90
20045;DHT22;10183;47.808;9.476;2023-02-11T08:51:25;-1.20;99.90
20045;DHT22;10183;47.808;9.476;2023-02-11T08:53:58;-1.10;99.90
20045;DHT22;10183;47.808;9.476;2023-02-11T08:56:25;-0.90;99.90
20045;DHT22;10183;47.808;9.476;2023-02-11T08:58:52;-0.80;99.90
20045;DHT22;10183;47.808;9.476;2023-02-11T09:01:26;-0.80;99.90
20045;DHT22;10183;47.808;9.476;2023-02-11T09:03:54;-0.80;99.90
20045;DHT22;10183;47.808;9.476;2023-02-11T09:06:22;-0.70;99.90
20045;DHT22;10183;47.808;9.476;2023-02-11T09:08:51;-0.50;99.90
20045;DHT22;10183;47.808;9.476;2023-02-11T09:11:20;-0.20;99.90
20045;DHT22;10183;47.808;9.476;2023-02-11T09:13:46;0.20;99.90
20045;DHT22;10183;47.808;9.476;2023-02-11T09:16:23;0.50;99.90
20045;DHT22;10183;47.808;9.476;2023-02-11T09:18:51;0.60;99.90
20045;DHT22;10183;47.808;9.476;2023-02-11T09:21:18;0.70;99.90
20045;DHT22;10183;47.808;9.476;2023-02-11T09:23:45;0.90;99.90
20045;DHT22;10183;47.808;9.476;2023-02-11T09:26:13;1.10;99.90
20045;DHT22;10183;47.808;9.476;2023-02-11T09:28:40;1.10;99.90
20045;DHT22;10183;47.808;9.476;2023-02-11T09:31:09;1.10;99.90
20045;DHT22;10183;47.808;9.476;2023-02-11T09:33:36;1.00;99.90
20045;DHT22;10183;47.808;9.476;2023-02-11T09:36:04;0.90;99.90
20045;DHT22;10183;47.808;9.476;2023-02-11T09:38:31;1.00;99.90
20045;DHT22;10183;47.808;9.476;2023-02-11T09:40:57;1.20;99.90
20045;DHT22;10183;47.808;9.476;2023-02-11T09:43:32;1.60;99.90
20045;DHT22;10183;47.808;9.476;2023-02-11T09:46:01;1.50;99.90
20045;DHT22;10183;47.808;9.476;2023-02-11T09:48:37;1.30;99.90
20045;DHT22;10183;47.808;9.476;2023-02-11T09:51:05;1.40;99.90
20045;DHT22;10183;47.808;9.476;2023-02-11T09:53:41;1.70;99.90
20045;DHT22;10183;47.808;9.476;2023-02-11T09:56:13;2.10;99.90
20045;DHT22;10183;47.808;9.476;2023-02-11T09:58:41;1.50;99.90
20045;DHT22;10183;47.808;9.476;2023-02-11T10:06:53;1.20;99.90
20045;DHT22;10183;47.808;9.476;2023-02-11T10:15:35;1.30;99.90
20045;DHT22;10183;47.808;9.476;2023-02-11T10:18:34;1.70;99.90
20045;DHT22;10183;47.808;9.476;2023-02-11T10:23:36;1.80;99.90
20045;DHT22;10183;47.808;9.476;2023-02-11T10:26:12;2.10;99.90
20045;DHT22;10183;47.808;9.476;2023-02-11T10:28:42;2.20;99.90
20045;DHT22;10183;47.808;9.476;2023-02-11T10:31:20;2.30;99.90
20045;DHT22;10183;47.808;9.476;2023-02-11T10:33:56;2.40;99.90
20045;DHT22;10183;47.808;9.476;2023-02-11T10:36:32;2.60;99.90
20045;DHT22;10183;47.808;9.476;2023-02-11T10:38:59;2.40;99.90
20045;DHT22;10183;47.808;9.476;2023-02-11T10:41:33;2.60;99.90
20045;DHT22;10183;47.808;9.476;2023-02-11T10:44:00;2.90;99.90
20045;DHT22;10183;47.808;9.476;2023-02-11T10:46:31;2.80;99.90
20045;DHT22;10183;47.808;9.476;2023-02-11T10:48:57;3.30;99.90
20045;DHT22;10183;47.808;9.476;2023-02-11T10:51:31;3.20;99.90
20045;DHT22;10183;47.808;9.476;2023-02-11T10:56:35;3.50;99.90
20045;DHT22;10183;47.808;9.476;2023-02-11T10:59:22;3.50;99.90
20045;DHT22;10183;47.808;9.476;2023-02-11T11:01:57;3.70;99.90
20045;DHT22;10183;47.808;9.476;2023-02-11T11:04:39;3.20;99.90
20045;DHT22;10183;47.808;9.476;2023-02-11T11:07:23;3.30;99.90
20045;DHT22;10183;47.808;9.476;2023-02-11T11:09:53;3.50;99.90
20045;DHT22;10183;47.808;9.476;2023-02-11T11:17:39;4.60;99.90
20045;DHT22;10183;47.808;9.476;2023-02-11T11:20:25;4.70;99.90
20045;DHT22;10183;47.808;9.476;2023-02-11T11:23:17;5.40;99.90
20045;DHT22;10183;47.808;9.476;2023-02-11T11:29:12;6.50;99.90
20045;DHT22;10183;47.808;9.476;2023-02-11T11:31:59;7.10;99.90
20045;DHT22;10183;47.808;9.476;2023-02-11T11:36:59;6.50;99.90
20045;DHT22;10183;47.808;9.476;2023-02-11T11:39:31;5.60;99.90
20045;DHT22;10183;47.808;9.476;2023-02-11T11:42:02;5.40;99.90
20045;DHT22;10183;47.808;9.476;2023-02-11T11:44:39;6.00;99.90
20045;DHT22;10183;47.808;9.476;2023-02-11T11:57:51;5.90;99.90
20045;DHT22;10183;47.808;9.476;2023-02-11T12:00:20;5.80;99.90
20045;DHT22;10183;47.808;9.476;2023-02-11T12:03:30;5.60;99.90
20045;DHT22;10183;47.808;9.476;2023-02-11T12:14:05;7.50;99.90
20045;DHT22;10183;47.808;9.476;2023-02-11T12:16:50;8.80;99.90
20045;DHT22;10183;47.808;9.476;2023-02-11T12:19:24;12.10;99.90
20045;DHT22;10183;47.808;9.476;2023-02-11T12:30:03;9.50;97.90
20045;DHT22;10183;47.808;9.476;2023-02-11T12:32:30;8.80;97.80
20045;DHT22;10183;47.808;9.476;2023-02-11T12:35:27;8.30;99.90
20045;DHT22;10183;47.808;9.476;2023-02-11T12:43:36;7.90;99.90
20045;DHT22;10183;47.808;9.476;2023-02-11T12:46:42;7.30;99.90
20045;DHT22;10183;47.808;9.476;2023-02-11T12:55:18;8.10;99.90
20045;DHT22;10183;47.808;9.476;2023-02-11T12:57:49;8.20;99.90
20045;DHT22;10183;47.808;9.476;2023-02-11T13:00:22;8.20;99.90
20045;DHT22;10183;47.808;9.476;2023-02-11T13:02:54;7.00;99.90
20045;DHT22;10183;47.808;9.476;2023-02-11T13:05:28;6.70;99.90
20045;DHT22;10183;47.808;9.476;2023-02-11T13:08:04;6.40;99.90
20045;DHT22;10183;47.808;9.476;2023-02-11T13:10:37;6.10;99.90
20045;DHT22;10183;47.808;9.476;2023-02-11T13:13:14;6.00;99.90
20045;DHT22;10183;47.808;9.476;2023-02-11T13:15:50;6.30;99.90
20045;DHT22;10183;47.808;9.476;2023-02-11T13:22:09;6.20;99.90
20045;DHT22;10183;47.808;9.476;2023-02-11T13:25:31;6.10;99.90
20045;DHT22;10183;47.808;9.476;2023-02-11T13:30:27;6.40;99.90
20045;DHT22;10183;47.808;9.476;2023-02-11T13:35:32;7.10;99.90
20045;DHT22;10183;47.808;9.476;2023-02-11T13:38:04;7.90;99.90
20045;DHT22;10183;47.808;9.476;2023-02-11T13:40:35;7.50;99.90
20045;DHT22;10183;47.808;9.476;2023-02-11T13:43:04;7.30;99.90
20045;DHT22;10183;47.808;9.476;2023-02-11T13:45:45;7.40;99.90
20045;DHT22;10183;47.808;9.476;2023-02-11T13:51:11;8.90;99.90
20045;DHT22;10183;47.808;9.476;2023-02-11T13:53:56;8.00;99.90
20045;DHT22;10183;47.808;9.476;2023-02-11T13:56:23;8.40;99.90
20045;DHT22;10183;47.808;9.476;2023-02-11T13:58:52;7.10;99.90
20045;DHT22;10183;47.808;9.476;2023-02-11T14:01:38;6.50;99.90
20045;DHT22;10183;47.808;9.476;2023-02-11T14:04:24;5.70;99.90
20045;DHT22;10183;47.808;9.476;2023-02-11T14:07:31;6.00;99.90
20045;DHT22;10183;47.808;9.476;2023-02-11T14:13:33;5.50;99.90
20045;DHT22;10183;47.808;9.476;2023-02-11T14:23:46;5.20;99.90
20045;DHT22;10183;47.808;9.476;2023-02-11T14:36:52;5.30;99.90
20045;DHT22;10183;47.808;9.476;2023-02-11T14:42:18;5.20;99.90
20045;DHT22;10183;47.808;9.476;2023-02-11T14:44:48;5.50;99.90
20045;DHT22;10183;47.808;9.476;2023-02-11T14:47:18;5.40;99.90
20045;DHT22;10183;47.808;9.476;2023-02-11T14:49:45;5.30;99.90
20045;DHT22;10183;47.808;9.476;2023-02-11T14:54:39;5.10;99.90
20045;DHT22;10183;47.808;9.476;2023-02-11T14:59:34;5.40;99.90
20045;DHT22;10183;47.808;9.476;2023-02-11T15:02:00;5.60;99.90
20045;DHT22;10183;47.808;9.476;2023-02-11T15:04:29;5.60;99.90
20045;DHT22;10183;47.808;9.476;2023-02-11T15:06:58;5.60;99.90
20045;DHT22;10183;47.808;9.476;2023-02-11T15:09:43;5.60;99.90
20045;DHT22;10183;47.808;9.476;2023-02-11T15:12:17;5.70;99.90
20045;DHT22;10183;47.808;9.476;2023-02-11T15:14:47;5.70;99.90
20045;DHT22;10183;47.808;9.476;2023-02-11T15:17:19;5.90;99.90
20045;DHT22;10183;47.808;9.476;2023-02-11T15:19:49;6.50;99.90
20045;DHT22;10183;47.808;9.476;2023-02-11T15:22:24;7.00;99.90
20045;DHT22;10183;47.808;9.476;2023-02-11T15:25:12;7.40;99.90
20045;DHT22;10183;47.808;9.476;2023-02-11T15:27:53;7.50;99.90
20045;DHT22;10183;47.808;9.476;2023-02-11T15:33:18;7.40;99.90
20045;DHT22;10183;47.808;9.476;2023-02-11T15:35:45;7.10;99.90
20045;DHT22;10183;47.808;9.476;2023-02-11T15:38:12;6.30;99.90
20045;DHT22;10183;47.808;9.476;2023-02-11T15:40:39;5.90;99.90
20045;DHT22;10183;47.808;9.476;2023-02-11T15:43:07;5.70;99.90
20045;DHT22;10183;47.808;9.476;2023-02-11T15:45:40;5.60;99.90
20045;DHT22;10183;47.808;9.476;2023-02-11T15:48:21;5.20;99.90
20045;DHT22;10183;47.808;9.476;2023-02-11T15:50:55;5.20;99.90
20045;DHT22;10183;47.808;9.476;2023-02-11T15:58:40;5.20;99.90
20045;DHT22;10183;47.808;9.476;2023-02-11T16:01:08;5.50;99.90
20045;DHT22;10183;47.808;9.476;2023-02-11T16:03:35;5.30;99.90
20045;DHT22;10183;47.808;9.476;2023-02-11T16:06:23;5.70;99.90
20045;DHT22;10183;47.808;9.476;2023-02-11T16:08:58;5.60;99.90
20045;DHT22;10183;47.808;9.476;2023-02-11T16:11:35;5.20;99.90
20045;DHT22;10183;47.808;9.476;2023-02-11T16:17:11;5.30;99.90
20045;DHT22;10183;47.808;9.476;2023-02-11T16:19:45;5.30;99.90
20045;DHT22;10183;47.808;9.476;2023-02-11T16:22:18;5.10;99.90
20045;DHT22;10183;47.808;9.476;2023-02-11T16:24:48;4.50;99.90
20045;DHT22;10183;47.808;9.476;2023-02-11T16:27:25;4.30;99.90
20045;DHT22;10183;47.808;9.476;2023-02-11T16:29:54;4.10;99.90
20045;DHT22;10183;47.808;9.476;2023-02-11T16:32:23;3.60;99.90
20045;DHT22;10183;47.808;9.476;2023-02-11T16:34:51;3.30;99.90
20045;DHT22;10183;47.808;9.476;2023-02-11T16:37:18;3.30;99.90
20045;DHT22;10183;47.808;9.476;2023-02-11T16:39:44;3.30;99.90
20045;DHT22;10183;47.808;9.476;2023-02-11T16:42:11;3.40;99.90
20045;DHT22;10183;47.808;9.476;2023-02-11T16:44:38;3.30;99.90
20045;DHT22;10183;47.808;9.476;2023-02-11T16:47:09;3.00;99.90
20045;DHT22;10183;47.808;9.476;2023-02-11T16:49:42;2.90;99.90
20045;DHT22;10183;47.808;9.476;2023-02-11T16:52:17;2.90;99.90
20045;DHT22;10183;47.808;9.476;2023-02-11T16:54:45;2.70;99.90
20045;DHT22;10183;47.808;9.476;2023-02-11T16:57:22;2.60;99.90
20045;DHT22;10183;47.808;9.476;2023-02-11T16:59:49;2.40;99.90
20045;DHT22;10183;47.808;9.476;2023-02-11T17:02:19;2.30;99.90
20045;DHT22;10183;47.808;9.476;2023-02-11T17:04:47;2.10;99.90
20045;DHT22;10183;47.808;9.476;2023-02-11T17:07:13;2.00;99.90
20045;DHT22;10183;47.808;9.476;2023-02-11T17:09:40;1.80;99.90
20045;DHT22;10183;47.808;9.476;2023-02-11T17:12:06;1.60;99.90
20045;DHT22;10183;47.808;9.476;2023-02-11T17:14:32;1.50;99.90
20045;DHT22;10183;47.808;9.476;2023-02-11T17:16:59;1.40;99.90
20045;DHT22;10183;47.808;9.476;2023-02-11T17:19:26;1.30;99.90
20045;DHT22;10183;47.808;9.476;2023-02-11T17:21:53;1.20;99.90
20045;DHT22;10183;47.808;9.476;2023-02-11T17:24:20;1.10;99.90
20045;DHT22;10183;47.808;9.476;2023-02-11T17:26:48;1.10;99.90
20045;DHT22;10183;47.808;9.476;2023-02-11T17:29:17;1.10;99.90
20045;DHT22;10183;47.808;9.476;2023-02-11T17:31:44;1.10;99.90
20045;DHT22;10183;47.808;9.476;2023-02-11T17:34:10;1.00;99.90
20045;DHT22;10183;47.808;9.476;2023-02-11T17:36:37;0.90;99.90
20045;DHT22;10183;47.808;9.476;2023-02-11T17:39:07;0.80;99.90
20045;DHT22;10183;47.808;9.476;2023-02-11T17:41:33;0.80;99.90
20045;DHT22;10183;47.808;9.476;2023-02-11T17:44:00;0.70;99.90
20045;DHT22;10183;47.808;9.476;2023-02-11T17:46:26;0.60;99.90
20045;DHT22;10183;47.808;9.476;2023-02-11T17:48:57;0.50;99.90
20045;DHT22;10183;47.808;9.476;2023-02-11T17:51:33;0.40;99.90
20045;DHT22;10183;47.808;9.476;2023-02-11T17:54:02;0.40;99.90
20045;DHT22;10183;47.808;9.476;2023-02-11T17:56:31;0.40;99.90
20045;DHT22;10183;47.808;9.476;2023-02-11T17:58:58;0.40;99.90
20045;DHT22;10183;47.808;9.476;2023-02-11T18:01:29;0.30;99.90
20045;DHT22;10183;47.808;9.476;2023-02-11T18:03:56;0.30;99.90
20045;DHT22;10183;47.808;9.476;2023-02-11T18:06:22;0.20;99.90
20045;DHT22;10183;47.808;9.476;2023-02-11T18:08:48;0.20;99.90
20045;DHT22;10183;47.808;9.476;2023-02-11T18:11:15;0.10;99.90
20045;DHT22;10183;47.808;9.476;2023-02-11T18:13:42;0.10;99.90
20045;DHT22;10183;47.808;9.476;2023-02-11T18:16:10;0.10;99.90